Burton Joyce, United Kingdom
Current Conditions -  °F | °C
As of 9:50 AM on Wednesday 26 Nov 2014 (Local Time) from EGNX Reporting Station
Light Rain Light Rain  
Wind Chill: 40°   Ceiling: 600
Heat Index: 45°   Visibility: 1.2mi
Dew Point: 45°   Wind: 8mph
Humidity: 100%   Direction: 50°NE
Pressure: 29.91"   Gusts: NA
Location:  52.99°N, 1.03°W
Report Text: EGNX 260950Z 05007KT 2000 -RADZ SCT003 BKN006 07/07 Q1013
Loading
Personal Weather Stations






























Interactive Weather Map New forecast layout! Learn more

10-Day Weather Forecast

Advertisements
Track Severe Weather on mobile